sensor_id;sensor_type;location;lat;lon;timestamp;P1;durP1;ratioP1;P2;durP2;ratioP2
51987;SDS011;38003;52.012;4.346;2023-06-14T00:02:22;5.82;;;2.70;;
51987;SDS011;38003;52.012;4.346;2023-06-14T00:04:50;3.15;;;2.67;;
51987;SDS011;38003;52.012;4.346;2023-06-14T00:07:20;4.07;;;2.40;;
51987;SDS011;38003;52.012;4.346;2023-06-14T00:09:50;4.90;;;2.60;;
51987;SDS011;38003;52.012;4.346;2023-06-14T00:12:18;5.32;;;2.55;;
51987;SDS011;38003;52.012;4.346;2023-06-14T00:14:47;5.07;;;3.15;;
51987;SDS011;38003;52.012;4.346;2023-06-14T00:17:16;4.20;;;2.65;;
51987;SDS011;38003;52.012;4.346;2023-06-14T00:19:44;3.63;;;2.70;;
51987;SDS011;38003;52.012;4.346;2023-06-14T00:22:13;3.90;;;2.60;;
51987;SDS011;38003;52.012;4.346;2023-06-14T00:24:41;5.40;;;2.58;;
51987;SDS011;38003;52.012;4.346;2023-06-14T00:27:10;4.80;;;2.80;;
51987;SDS011;38003;52.012;4.346;2023-06-14T00:29:38;4.47;;;2.90;;
51987;SDS011;38003;52.012;4.346;2023-06-14T00:32:08;4.50;;;2.70;;
51987;SDS011;38003;52.012;4.346;2023-06-14T00:34:36;3.28;;;2.67;;
51987;SDS011;38003;52.012;4.346;2023-06-14T00:37:04;4.32;;;2.72;;
51987;SDS011;38003;52.012;4.346;2023-06-14T00:39:32;7.03;;;3.25;;
51987;SDS011;38003;52.012;4.346;2023-06-14T00:42:01;4.95;;;2.92;;
51987;SDS011;38003;52.012;4.346;2023-06-14T00:44:29;4.75;;;2.67;;
51987;SDS011;38003;52.012;4.346;2023-06-14T00:46:57;8.60;;;3.17;;
51987;SDS011;38003;52.012;4.346;2023-06-14T00:49:27;3.78;;;2.75;;
51987;SDS011;38003;52.012;4.346;2023-06-14T00:51:56;4.47;;;3.00;;
51987;SDS011;38003;52.012;4.346;2023-06-14T00:54:24;3.40;;;2.70;;
51987;SDS011;38003;52.012;4.346;2023-06-14T00:56:52;3.70;;;2.80;;
51987;SDS011;38003;52.012;4.346;2023-06-14T00:59:20;5.45;;;2.90;;
51987;SDS011;38003;52.012;4.346;2023-06-14T01:01:48;3.78;;;2.83;;
51987;SDS011;38003;52.012;4.346;2023-06-14T01:04:17;4.53;;;3.03;;
51987;SDS011;38003;52.012;4.346;2023-06-14T01:06:49;4.53;;;3.03;;
51987;SDS011;38003;52.012;4.346;2023-06-14T01:09:21;5.93;;;3.30;;
51987;SDS011;38003;52.012;4.346;2023-06-14T01:11:54;5.18;;;3.10;;
51987;SDS011;38003;52.012;4.346;2023-06-14T01:14:23;4.30;;;3.03;;
51987;SDS011;38003;52.012;4.346;2023-06-14T01:16:52;6.60;;;3.15;;
51987;SDS011;38003;52.012;4.346;2023-06-14T01:19:21;5.35;;;2.88;;
51987;SDS011;38003;52.012;4.346;2023-06-14T01:21:53;3.53;;;2.85;;
51987;SDS011;38003;52.012;4.346;2023-06-14T01:24:23;8.20;;;2.90;;
51987;SDS011;38003;52.012;4.346;2023-06-14T01:26:58;6.18;;;3.15;;
51987;SDS011;38003;52.012;4.346;2023-06-14T01:29:27;6.47;;;3.13;;
51987;SDS011;38003;52.012;4.346;2023-06-14T01:31:58;3.90;;;2.97;;
51987;SDS011;38003;52.012;4.346;2023-06-14T01:34:27;5.07;;;3.00;;
51987;SDS011;38003;52.012;4.346;2023-06-14T01:36:55;4.93;;;2.92;;
51987;SDS011;38003;52.012;4.346;2023-06-14T01:39:25;4.65;;;2.90;;
51987;SDS011;38003;52.012;4.346;2023-06-14T01:41:53;5.43;;;2.50;;
51987;SDS011;38003;52.012;4.346;2023-06-14T01:44:21;5.22;;;3.10;;
51987;SDS011;38003;52.012;4.346;2023-06-14T01:46:50;4.47;;;2.97;;
51987;SDS011;38003;52.012;4.346;2023-06-14T01:49:18;5.55;;;3.42;;
51987;SDS011;38003;52.012;4.346;2023-06-14T01:51:48;4.25;;;2.60;;
51987;SDS011;38003;52.012;4.346;2023-06-14T01:54:16;3.85;;;2.53;;
51987;SDS011;38003;52.012;4.346;2023-06-14T01:56:45;4.10;;;2.80;;
51987;SDS011;38003;52.012;4.346;2023-06-14T01:59:14;6.82;;;3.20;;
51987;SDS011;38003;52.012;4.346;2023-06-14T02:01:42;6.07;;;2.72;;
51987;SDS011;38003;52.012;4.346;2023-06-14T02:04:11;8.27;;;2.63;;
51987;SDS011;38003;52.012;4.346;2023-06-14T02:06:39;3.30;;;2.65;;
51987;SDS011;38003;52.012;4.346;2023-06-14T02:09:07;4.05;;;2.88;;
51987;SDS011;38003;52.012;4.346;2023-06-14T02:11:35;5.30;;;2.90;;
51987;SDS011;38003;52.012;4.346;2023-06-14T02:14:05;6.32;;;2.80;;
51987;SDS011;38003;52.012;4.346;2023-06-14T02:16:37;5.03;;;3.13;;
51987;SDS011;38003;52.012;4.346;2023-06-14T02:19:06;5.60;;;2.80;;
51987;SDS011;38003;52.012;4.346;2023-06-14T02:21:34;6.32;;;3.90;;
51987;SDS011;38003;52.012;4.346;2023-06-14T02:24:02;4.70;;;3.00;;
51987;SDS011;38003;52.012;4.346;2023-06-14T02:26:31;3.35;;;2.92;;
51987;SDS011;38003;52.012;4.346;2023-06-14T02:28:59;6.72;;;2.97;;
51987;SDS011;38003;52.012;4.346;2023-06-14T02:31:29;3.80;;;3.00;;
51987;SDS011;38003;52.012;4.346;2023-06-14T02:33:57;5.53;;;2.85;;
51987;SDS011;38003;52.012;4.346;2023-06-14T02:36:25;6.13;;;3.05;;
51987;SDS011;38003;52.012;4.346;2023-06-14T02:38:55;8.52;;;2.90;;
51987;SDS011;38003;52.012;4.346;2023-06-14T02:41:24;9.65;;;3.00;;
51987;SDS011;38003;52.012;4.346;2023-06-14T02:43:53;5.22;;;3.25;;
51987;SDS011;38003;52.012;4.346;2023-06-14T02:46:22;4.60;;;2.83;;
51987;SDS011;38003;52.012;4.346;2023-06-14T02:48:52;4.63;;;2.80;;
51987;SDS011;38003;52.012;4.346;2023-06-14T02:51:20;5.63;;;3.25;;
51987;SDS011;38003;52.012;4.346;2023-06-14T02:53:48;4.97;;;2.95;;
51987;SDS011;38003;52.012;4.346;2023-06-14T02:56:16;4.57;;;3.15;;
51987;SDS011;38003;52.012;4.346;2023-06-14T02:58:45;4.95;;;2.70;;
51987;SDS011;38003;52.012;4.346;2023-06-14T03:01:15;7.63;;;2.88;;
51987;SDS011;38003;52.012;4.346;2023-06-14T03:03:44;6.60;;;3.20;;
51987;SDS011;38003;52.012;4.346;2023-06-14T03:06:14;6.80;;;2.83;;
51987;SDS011;38003;52.012;4.346;2023-06-14T03:08:43;8.00;;;3.30;;
51987;SDS011;38003;52.012;4.346;2023-06-14T03:11:11;6.45;;;3.20;;
51987;SDS011;38003;52.012;4.346;2023-06-14T03:13:39;6.20;;;3.05;;
51987;SDS011;38003;52.012;4.346;2023-06-14T03:16:08;9.05;;;3.22;;
51987;SDS011;38003;52.012;4.346;2023-06-14T03:18:37;4.53;;;3.00;;
51987;SDS011;38003;52.012;4.346;2023-06-14T03:21:05;4.78;;;3.10;;
51987;SDS011;38003;52.012;4.346;2023-06-14T03:23:36;7.22;;;3.10;;
51987;SDS011;38003;52.012;4.346;2023-06-14T03:26:04;6.53;;;3.03;;
51987;SDS011;38003;52.012;4.346;2023-06-14T03:28:33;5.57;;;2.97;;
51987;SDS011;38003;52.012;4.346;2023-06-14T03:31:01;6.70;;;3.10;;
51987;SDS011;38003;52.012;4.346;2023-06-14T03:33:29;4.05;;;2.80;;
51987;SDS011;38003;52.012;4.346;2023-06-14T03:35:57;6.57;;;3.13;;
51987;SDS011;38003;52.012;4.346;2023-06-14T03:38:26;4.00;;;3.03;;
51987;SDS011;38003;52.012;4.346;2023-06-14T03:40:55;4.75;;;3.20;;
51987;SDS011;38003;52.012;4.346;2023-06-14T03:43:24;5.85;;;2.97;;
51987;SDS011;38003;52.012;4.346;2023-06-14T03:45:52;7.38;;;2.90;;
51987;SDS011;38003;52.012;4.346;2023-06-14T03:48:20;6.18;;;3.40;;
51987;SDS011;38003;52.012;4.346;2023-06-14T03:50:48;7.70;;;3.05;;
51987;SDS011;38003;52.012;4.346;2023-06-14T03:53:17;4.75;;;3.08;;
51987;SDS011;38003;52.012;4.346;2023-06-14T03:55:46;5.65;;;2.95;;
51987;SDS011;38003;52.012;4.346;2023-06-14T03:58:19;8.90;;;3.33;;
51987;SDS011;38003;52.012;4.346;2023-06-14T04:00:47;6.78;;;2.97;;
51987;SDS011;38003;52.012;4.346;2023-06-14T04:03:15;6.68;;;3.13;;
51987;SDS011;38003;52.012;4.346;2023-06-14T04:05:46;7.13;;;2.97;;
51987;SDS011;38003;52.012;4.346;2023-06-14T04:08:15;5.82;;;3.22;;
51987;SDS011;38003;52.012;4.346;2023-06-14T04:10:45;9.00;;;2.90;;
51987;SDS011;38003;52.012;4.346;2023-06-14T04:13:13;8.90;;;3.45;;
51987;SDS011;38003;52.012;4.346;2023-06-14T04:15:43;6.97;;;2.83;;
51987;SDS011;38003;52.012;4.346;2023-06-14T04:18:12;6.50;;;3.13;;
51987;SDS011;38003;52.012;4.346;2023-06-14T04:20:40;5.60;;;3.08;;
51987;SDS011;38003;52.012;4.346;2023-06-14T04:23:13;5.05;;;3.05;;
51987;SDS011;38003;52.012;4.346;2023-06-14T04:25:41;5.90;;;3.08;;
51987;SDS011;38003;52.012;4.346;2023-06-14T04:28:11;7.43;;;3.30;;
51987;SDS011;38003;52.012;4.346;2023-06-14T04:30:41;4.32;;;3.10;;
51987;SDS011;38003;52.012;4.346;2023-06-14T04:33:12;5.78;;;3.33;;
51987;SDS011;38003;52.012;4.346;2023-06-14T04:35:41;7.45;;;2.90;;
51987;SDS011;38003;52.012;4.346;2023-06-14T04:38:13;7.47;;;2.78;;
51987;SDS011;38003;52.012;4.346;2023-06-14T04:40:42;8.32;;;3.13;;
51987;SDS011;38003;52.012;4.346;2023-06-14T04:43:12;6.55;;;3.05;;
51987;SDS011;38003;52.012;4.346;2023-06-14T04:45:43;5.60;;;3.17;;
51987;SDS011;38003;52.012;4.346;2023-06-14T04:48:14;4.00;;;2.90;;
51987;SDS011;38003;52.012;4.346;2023-06-14T04:50:46;7.22;;;2.85;;
51987;SDS011;38003;52.012;4.346;2023-06-14T04:53:19;6.55;;;3.05;;
51987;SDS011;38003;52.012;4.346;2023-06-14T04:55:49;3.60;;;2.58;;
51987;SDS011;38003;52.012;4.346;2023-06-14T04:58:17;5.32;;;2.78;;
51987;SDS011;38003;52.012;4.346;2023-06-14T05:00:45;3.85;;;2.50;;
51987;SDS011;38003;52.012;4.346;2023-06-14T05:03:15;7.35;;;2.60;;
51987;SDS011;38003;52.012;4.346;2023-06-14T05:05:45;4.30;;;2.60;;
51987;SDS011;38003;52.012;4.346;2023-06-14T05:08:13;8.40;;;2.80;;
51987;SDS011;38003;52.012;4.346;2023-06-14T05:10:41;6.85;;;2.92;;
51987;SDS011;38003;52.012;4.346;2023-06-14T05:13:09;4.78;;;2.50;;
51987;SDS011;38003;52.012;4.346;2023-06-14T05:15:37;4.28;;;2.83;;
51987;SDS011;38003;52.012;4.346;2023-06-14T05:18:06;4.38;;;2.60;;
51987;SDS011;38003;52.012;4.346;2023-06-14T05:20:37;3.58;;;2.60;;
51987;SDS011;38003;52.012;4.346;2023-06-14T05:23:06;6.00;;;2.70;;
51987;SDS011;38003;52.012;4.346;2023-06-14T05:25:34;4.93;;;2.53;;
51987;SDS011;38003;52.012;4.346;2023-06-14T05:28:02;5.85;;;2.42;;
51987;SDS011;38003;52.012;4.346;2023-06-14T05:30:31;6.03;;;3.03;;
51987;SDS011;38003;52.012;4.346;2023-06-14T05:32:59;6.45;;;2.70;;
51987;SDS011;38003;52.012;4.346;2023-06-14T05:35:28;6.95;;;2.88;;
51987;SDS011;38003;52.012;4.346;2023-06-14T05:37:58;3.28;;;2.47;;
51987;SDS011;38003;52.012;4.346;2023-06-14T05:40:26;3.42;;;2.42;;
51987;SDS011;38003;52.012;4.346;2023-06-14T05:42:54;5.07;;;2.55;;
51987;SDS011;38003;52.012;4.346;2023-06-14T05:45:23;5.88;;;2.67;;
51987;SDS011;38003;52.012;4.346;2023-06-14T05:47:51;4.88;;;2.85;;
51987;SDS011;38003;52.012;4.346;2023-06-14T05:50:20;4.82;;;2.67;;
51987;SDS011;38003;52.012;4.346;2023-06-14T05:52:49;5.35;;;2.60;;
51987;SDS011;38003;52.012;4.346;2023-06-14T05:55:20;5.03;;;2.60;;
51987;SDS011;38003;52.012;4.346;2023-06-14T05:57:48;7.07;;;2.72;;
51987;SDS011;38003;52.012;4.346;2023-06-14T06:00:17;8.23;;;2.75;;
51987;SDS011;38003;52.012;4.346;2023-06-14T06:02:46;4.95;;;3.13;;
51987;SDS011;38003;52.012;4.346;2023-06-14T06:05:15;4.82;;;2.60;;
51987;SDS011;38003;52.012;4.346;2023-06-14T06:07:44;4.00;;;2.55;;
51987;SDS011;38003;52.012;4.346;2023-06-14T06:10:12;5.90;;;2.78;;
51987;SDS011;38003;52.012;4.346;2023-06-14T06:12:42;5.78;;;2.65;;
51987;SDS011;38003;52.012;4.346;2023-06-14T06:15:10;5.93;;;3.20;;
51987;SDS011;38003;52.012;4.346;2023-06-14T06:17:39;10.10;;;2.85;;
51987;SDS011;38003;52.012;4.346;2023-06-14T06:20:21;5.90;;;2.65;;
51987;SDS011;38003;52.012;4.346;2023-06-14T06:22:55;7.15;;;2.63;;
51987;SDS011;38003;52.012;4.346;2023-06-14T06:25:25;9.98;;;2.85;;
51987;SDS011;38003;52.012;4.346;2023-06-14T06:27:55;6.82;;;2.78;;
51987;SDS011;38003;52.012;4.346;2023-06-14T06:30:23;7.60;;;2.83;;
51987;SDS011;38003;52.012;4.346;2023-06-14T06:32:52;6.43;;;2.65;;
51987;SDS011;38003;52.012;4.346;2023-06-14T06:35:22;8.43;;;3.15;;
51987;SDS011;38003;52.012;4.346;2023-06-14T06:37:50;7.00;;;2.80;;
51987;SDS011;38003;52.012;4.346;2023-06-14T06:40:19;5.47;;;2.90;;
51987;SDS011;38003;52.012;4.346;2023-06-14T06:42:47;7.03;;;2.72;;
51987;SDS011;38003;52.012;4.346;2023-06-14T06:45:17;4.38;;;2.80;;
51987;SDS011;38003;52.012;4.346;2023-06-14T06:47:48;6.32;;;2.78;;
51987;SDS011;38003;52.012;4.346;2023-06-14T06:50:17;5.30;;;2.83;;
51987;SDS011;38003;52.012;4.346;2023-06-14T06:52:46;3.80;;;2.72;;
51987;SDS011;38003;52.012;4.346;2023-06-14T06:55:14;6.13;;;2.60;;
51987;SDS011;38003;52.012;4.346;2023-06-14T06:57:43;6.35;;;3.13;;
51987;SDS011;38003;52.012;4.346;2023-06-14T07:00:12;6.07;;;3.08;;
51987;SDS011;38003;52.012;4.346;2023-06-14T07:02:42;4.53;;;3.08;;
51987;SDS011;38003;52.012;4.346;2023-06-14T07:05:11;9.70;;;3.40;;
51987;SDS011;38003;52.012;4.346;2023-06-14T07:07:39;5.78;;;2.90;;
51987;SDS011;38003;52.012;4.346;2023-06-14T07:10:08;9.90;;;3.22;;
51987;SDS011;38003;52.012;4.346;2023-06-14T07:12:36;5.07;;;2.88;;
51987;SDS011;38003;52.012;4.346;2023-06-14T07:15:06;6.85;;;2.92;;
51987;SDS011;38003;52.012;4.346;2023-06-14T07:17:35;5.88;;;3.03;;
51987;SDS011;38003;52.012;4.346;2023-06-14T07:20:05;5.95;;;3.92;;
51987;SDS011;38003;52.012;4.346;2023-06-14T07:22:39;5.65;;;2.80;;
51987;SDS011;38003;52.012;4.346;2023-06-14T07:25:08;7.10;;;3.10;;
51987;SDS011;38003;52.012;4.346;2023-06-14T07:27:39;5.43;;;3.10;;
51987;SDS011;38003;52.012;4.346;2023-06-14T07:30:08;6.85;;;2.90;;
51987;SDS011;38003;52.012;4.346;2023-06-14T07:32:36;8.15;;;3.08;;
51987;SDS011;38003;52.012;4.346;2023-06-14T07:35:07;4.43;;;2.92;;
51987;SDS011;38003;52.012;4.346;2023-06-14T07:37:35;5.05;;;2.95;;
51987;SDS011;38003;52.012;4.346;2023-06-14T07:40:03;6.03;;;3.00;;
51987;SDS011;38003;52.012;4.346;2023-06-14T07:42:33;7.28;;;3.92;;
51987;SDS011;38003;52.012;4.346;2023-06-14T07:45:02;5.93;;;2.75;;
51987;SDS011;38003;52.012;4.346;2023-06-14T07:47:31;4.88;;;3.13;;
51987;SDS011;38003;52.012;4.346;2023-06-14T07:50:00;7.50;;;3.38;;
51987;SDS011;38003;52.012;4.346;2023-06-14T07:52:30;5.88;;;3.10;;
51987;SDS011;38003;52.012;4.346;2023-06-14T07:54:58;7.47;;;3.17;;
51987;SDS011;38003;52.012;4.346;2023-06-14T07:57:26;5.38;;;2.92;;
51987;SDS011;38003;52.012;4.346;2023-06-14T07:59:55;6.50;;;3.33;;
51987;SDS011;38003;52.012;4.346;2023-06-14T08:02:23;6.57;;;3.00;;
51987;SDS011;38003;52.012;4.346;2023-06-14T08:04:52;5.65;;;3.28;;
51987;SDS011;38003;52.012;4.346;2023-06-14T08:07:20;6.00;;;3.10;;
51987;SDS011;38003;52.012;4.346;2023-06-14T08:09:50;9.25;;;3.65;;
51987;SDS011;38003;52.012;4.346;2023-06-14T08:12:18;6.22;;;3.45;;
51987;SDS011;38003;52.012;4.346;2023-06-14T08:14:46;5.60;;;3.30;;
51987;SDS011;38003;52.012;4.346;2023-06-14T08:17:26;6.30;;;3.00;;
51987;SDS011;38003;52.012;4.346;2023-06-14T08:19:55;6.20;;;3.28;;
51987;SDS011;38003;52.012;4.346;2023-06-14T08:22:23;5.28;;;3.20;;
51987;SDS011;38003;52.012;4.346;2023-06-14T08:24:55;5.47;;;3.58;;
51987;SDS011;38003;52.012;4.346;2023-06-14T08:27:23;4.28;;;2.90;;
51987;SDS011;38003;52.012;4.346;2023-06-14T08:29:55;6.50;;;2.80;;
51987;SDS011;38003;52.012;4.346;2023-06-14T08:32:23;5.50;;;3.25;;
51987;SDS011;38003;52.012;4.346;2023-06-14T08:34:51;4.85;;;2.90;;
51987;SDS011;38003;52.012;4.346;2023-06-14T08:37:39;5.38;;;3.30;;
51987;SDS011;38003;52.012;4.346;2023-06-14T08:40:12;3.17;;;2.83;;
51987;SDS011;38003;52.012;4.346;2023-06-14T08:42:44;5.60;;;2.67;;
51987;SDS011;38003;52.012;4.346;2023-06-14T08:45:13;4.05;;;3.15;;
51987;SDS011;38003;52.012;4.346;2023-06-14T08:47:42;5.22;;;2.45;;
51987;SDS011;38003;52.012;4.346;2023-06-14T08:50:11;11.05;;;3.17;;
51987;SDS011;38003;52.012;4.346;2023-06-14T08:52:54;4.18;;;2.83;;
51987;SDS011;38003;52.012;4.346;2023-06-14T08:55:25;6.22;;;3.05;;
51987;SDS011;38003;52.012;4.346;2023-06-14T08:57:53;11.32;;;3.25;;
51987;SDS011;38003;52.012;4.346;2023-06-14T09:00:24;6.40;;;3.10;;
51987;SDS011;38003;52.012;4.346;2023-06-14T09:02:53;4.75;;;3.20;;
51987;SDS011;38003;52.012;4.346;2023-06-14T09:05:25;7.57;;;2.65;;
51987;SDS011;38003;52.012;4.346;2023-06-14T09:07:53;4.47;;;3.13;;
51987;SDS011;38003;52.012;4.346;2023-06-14T09:10:24;6.25;;;3.22;;
51987;SDS011;38003;52.012;4.346;2023-06-14T09:12:54;8.40;;;3.30;;
51987;SDS011;38003;52.012;4.346;2023-06-14T09:15:23;5.68;;;2.97;;
51987;SDS011;38003;52.012;4.346;2023-06-14T09:17:51;6.55;;;3.17;;
51987;SDS011;38003;52.012;4.346;2023-06-14T09:20:19;6.97;;;2.92;;
51987;SDS011;38003;52.012;4.346;2023-06-14T09:22:48;5.53;;;3.08;;
51987;SDS011;38003;52.012;4.346;2023-06-14T09:25:16;4.07;;;2.75;;
51987;SDS011;38003;52.012;4.346;2023-06-14T09:28:06;7.57;;;3.35;;
51987;SDS011;38003;52.012;4.346;2023-06-14T09:30:36;9.85;;;3.08;;
51987;SDS011;38003;52.012;4.346;2023-06-14T09:33:04;5.97;;;2.80;;
51987;SDS011;38003;52.012;4.346;2023-06-14T09:35:33;7.10;;;3.03;;
51987;SDS011;38003;52.012;4.346;2023-06-14T09:38:02;7.00;;;3.08;;
51987;SDS011;38003;52.012;4.346;2023-06-14T09:40:33;9.23;;;3.22;;
51987;SDS011;38003;52.012;4.346;2023-06-14T09:43:02;5.60;;;2.47;;
51987;SDS011;38003;52.012;4.346;2023-06-14T09:45:34;5.10;;;2.67;;
51987;SDS011;38003;52.012;4.346;2023-06-14T09:48:02;5.13;;;2.58;;
51987;SDS011;38003;52.012;4.346;2023-06-14T09:50:33;3.63;;;2.70;;
51987;SDS011;38003;52.012;4.346;2023-06-14T09:53:02;4.28;;;2.47;;
51987;SDS011;38003;52.012;4.346;2023-06-14T09:55:30;4.70;;;2.70;;
51987;SDS011;38003;52.012;4.346;2023-06-14T09:58:01;6.00;;;2.70;;
51987;SDS011;38003;52.012;4.346;2023-06-14T10:00:35;7.63;;;2.60;;
51987;SDS011;38003;52.012;4.346;2023-06-14T10:03:05;6.75;;;2.63;;
51987;SDS011;38003;52.012;4.346;2023-06-14T10:05:34;5.93;;;2.40;;
51987;SDS011;38003;52.012;4.346;2023-06-14T10:08:04;5.70;;;2.38;;
51987;SDS011;38003;52.012;4.346;2023-06-14T10:10:33;3.40;;;2.30;;
51987;SDS011;38003;52.012;4.346;2023-06-14T10:13:01;3.60;;;2.40;;
51987;SDS011;38003;52.012;4.346;2023-06-14T10:15:30;5.50;;;2.33;;
51987;SDS011;38003;52.012;4.346;2023-06-14T10:18:03;4.35;;;2.50;;
51987;SDS011;38003;52.012;4.346;2023-06-14T10:20:35;5.95;;;2.35;;
51987;SDS011;38003;52.012;4.346;2023-06-14T10:23:06;6.35;;;2.63;;
51987;SDS011;38003;52.012;4.346;2023-06-14T10:25:36;5.30;;;2.10;;
51987;SDS011;38003;52.012;4.346;2023-06-14T10:28:14;5.40;;;2.55;;
51987;SDS011;38003;52.012;4.346;2023-06-14T10:33:28;5.45;;;2.30;;
51987;SDS011;38003;52.012;4.346;2023-06-14T10:36:06;6.68;;;2.33;;
51987;SDS011;38003;52.012;4.346;2023-06-14T10:38:35;2.80;;;2.08;;
51987;SDS011;38003;52.012;4.346;2023-06-14T10:41:04;5.35;;;2.33;;
51987;SDS011;38003;52.012;4.346;2023-06-14T10:43:33;4.57;;;1.85;;
51987;SDS011;38003;52.012;4.346;2023-06-14T10:46:12;4.95;;;1.90;;
51987;SDS011;38003;52.012;4.346;2023-06-14T10:48:42;3.72;;;2.10;;
51987;SDS011;38003;52.012;4.346;2023-06-14T10:51:19;3.38;;;2.08;;
51987;SDS011;38003;52.012;4.346;2023-06-14T10:53:48;3.85;;;1.85;;
51987;SDS011;38003;52.012;4.346;2023-06-14T10:56:28;3.40;;;1.88;;
51987;SDS011;38003;52.012;4.346;2023-06-14T10:58:57;4.00;;;1.90;;
51987;SDS011;38003;52.012;4.346;2023-06-14T11:01:31;4.30;;;1.80;;
51987;SDS011;38003;52.012;4.346;2023-06-14T11:04:07;2.97;;;1.83;;
51987;SDS011;38003;52.012;4.346;2023-06-14T11:06:46;5.53;;;2.22;;
51987;SDS011;38003;52.012;4.346;2023-06-14T11:09:26;3.10;;;1.92;;
51987;SDS011;38003;52.012;4.346;2023-06-14T11:12:00;4.07;;;1.73;;
51987;SDS011;38003;52.012;4.346;2023-06-14T11:14:29;5.00;;;2.22;;
51987;SDS011;38003;52.012;4.346;2023-06-14T11:16:58;2.88;;;1.77;;
51987;SDS011;38003;52.012;4.346;2023-06-14T11:19:28;3.85;;;1.73;;
51987;SDS011;38003;52.012;4.346;2023-06-14T11:21:56;3.10;;;1.70;;
51987;SDS011;38003;52.012;4.346;2023-06-14T11:24:24;3.20;;;2.10;;
51987;SDS011;38003;52.012;4.346;2023-06-14T11:26:52;2.75;;;1.70;;
51987;SDS011;38003;52.012;4.346;2023-06-14T11:29:22;3.75;;;1.73;;
51987;SDS011;38003;52.012;4.346;2023-06-14T11:31:50;4.13;;;1.90;;
51987;SDS011;38003;52.012;4.346;2023-06-14T11:34:19;2.78;;;1.70;;
51987;SDS011;38003;52.012;4.346;2023-06-14T11:36:49;4.72;;;2.00;;
51987;SDS011;38003;52.012;4.346;2023-06-14T11:39:17;4.57;;;1.90;;
51987;SDS011;38003;52.012;4.346;2023-06-14T11:41:45;2.70;;;1.73;;
51987;SDS011;38003;52.012;4.346;2023-06-14T11:44:13;4.10;;;2.30;;
51987;SDS011;38003;52.012;4.346;2023-06-14T11:46:42;2.53;;;1.42;;
51987;SDS011;38003;52.012;4.346;2023-06-14T11:49:10;4.00;;;1.42;;
51987;SDS011;38003;52.012;4.346;2023-06-14T11:51:38;1.98;;;1.58;;
51987;SDS011;38003;52.012;4.346;2023-06-14T11:54:08;1.98;;;1.63;;
51987;SDS011;38003;52.012;4.346;2023-06-14T11:56:36;14.98;;;2.28;;
51987;SDS011;38003;52.012;4.346;2023-06-14T11:59:04;3.08;;;1.65;;
51987;SDS011;38003;52.012;4.346;2023-06-14T12:01:35;6.20;;;1.63;;
51987;SDS011;38003;52.012;4.346;2023-06-14T12:04:04;3.28;;;1.75;;
51987;SDS011;38003;52.012;4.346;2023-06-14T12:06:33;10.05;;;2.10;;
51987;SDS011;38003;52.012;4.346;2023-06-14T12:09:03;2.53;;;1.50;;
51987;SDS011;38003;52.012;4.346;2023-06-14T12:11:38;3.47;;;1.80;;
51987;SDS011;38003;52.012;4.346;2023-06-14T12:14:07;2.30;;;1.42;;
51987;SDS011;38003;52.012;4.346;2023-06-14T12:16:37;2.13;;;1.35;;
51987;SDS011;38003;52.012;4.346;2023-06-14T12:19:11;2.63;;;1.80;;
51987;SDS011;38003;52.012;4.346;2023-06-14T12:21:40;6.65;;;1.45;;
51987;SDS011;38003;52.012;4.346;2023-06-14T12:24:08;3.13;;;1.50;;
51987;SDS011;38003;52.012;4.346;2023-06-14T12:26:40;3.58;;;1.50;;
51987;SDS011;38003;52.012;4.346;2023-06-14T12:29:09;6.13;;;1.70;;
51987;SDS011;38003;52.012;4.346;2023-06-14T12:31:39;3.92;;;1.52;;
51987;SDS011;38003;52.012;4.346;2023-06-14T12:34:07;1.73;;;1.50;;
51987;SDS011;38003;52.012;4.346;2023-06-14T12:36:36;4.57;;;1.63;;
51987;SDS011;38003;52.012;4.346;2023-06-14T12:39:08;11.40;;;2.08;;
51987;SDS011;38003;52.012;4.346;2023-06-14T12:41:36;3.03;;;1.50;;
51987;SDS011;38003;52.012;4.346;2023-06-14T12:44:09;4.10;;;1.63;;
51987;SDS011;38003;52.012;4.346;2023-06-14T12:46:37;3.20;;;1.30;;
51987;SDS011;38003;52.012;4.346;2023-06-14T12:49:07;2.17;;;1.33;;
51987;SDS011;38003;52.012;4.346;2023-06-14T12:51:36;5.20;;;1.50;;
51987;SDS011;38003;52.012;4.346;2023-06-14T12:54:04;5.75;;;1.50;;
51987;SDS011;38003;52.012;4.346;2023-06-14T12:56:32;1.65;;;1.30;;
51987;SDS011;38003;52.012;4.346;2023-06-14T12:59:01;3.03;;;1.42;;
51987;SDS011;38003;52.012;4.346;2023-06-14T13:01:30;2.67;;;1.60;;
51987;SDS011;38003;52.012;4.346;2023-06-14T13:03:58;3.10;;;1.27;;
51987;SDS011;38003;52.012;4.346;2023-06-14T13:06:27;4.90;;;1.77;;
51987;SDS011;38003;52.012;4.346;2023-06-14T13:08:57;2.58;;;1.60;;
51987;SDS011;38003;52.012;4.346;2023-06-14T13:11:25;2.42;;;1.52;;
51987;SDS011;38003;52.012;4.346;2023-06-14T13:13:54;1.50;;;1.40;;
51987;SDS011;38003;52.012;4.346;2023-06-14T13:16:22;3.83;;;1.67;;
51987;SDS011;38003;52.012;4.346;2023-06-14T13:18:52;1.98;;;1.58;;
51987;SDS011;38003;52.012;4.346;2023-06-14T13:21:20;2.97;;;1.77;;
51987;SDS011;38003;52.012;4.346;2023-06-14T13:23:49;2.08;;;1.50;;
51987;SDS011;38003;52.012;4.346;2023-06-14T13:26:18;2.03;;;1.45;;
51987;SDS011;38003;52.012;4.346;2023-06-14T13:28:46;2.30;;;1.33;;
51987;SDS011;38003;52.012;4.346;2023-06-14T13:31:14;3.17;;;1.50;;
51987;SDS011;38003;52.012;4.346;2023-06-14T13:33:43;3.88;;;1.50;;
51987;SDS011;38003;52.012;4.346;2023-06-14T13:36:12;3.10;;;1.50;;
51987;SDS011;38003;52.012;4.346;2023-06-14T13:38:43;2.95;;;1.52;;
51987;SDS011;38003;52.012;4.346;2023-06-14T13:41:14;3.28;;;1.50;;
51987;SDS011;38003;52.012;4.346;2023-06-14T13:43:42;5.60;;;1.45;;
51987;SDS011;38003;52.012;4.346;2023-06-14T13:46:11;2.47;;;1.60;;
51987;SDS011;38003;52.012;4.346;2023-06-14T13:48:39;3.97;;;1.33;;
51987;SDS011;38003;52.012;4.346;2023-06-14T13:51:07;3.13;;;1.48;;
51987;SDS011;38003;52.012;4.346;2023-06-14T13:53:37;3.55;;;1.58;;
51987;SDS011;38003;52.012;4.346;2023-06-14T13:56:05;4.03;;;1.50;;
51987;SDS011;38003;52.012;4.346;2023-06-14T13:58:34;2.33;;;1.50;;
51987;SDS011;38003;52.012;4.346;2023-06-14T14:01:02;1.92;;;1.70;;
51987;SDS011;38003;52.012;4.346;2023-06-14T14:03:30;5.05;;;1.30;;
51987;SDS011;38003;52.012;4.346;2023-06-14T14:06:00;1.67;;;1.30;;
51987;SDS011;38003;52.012;4.346;2023-06-14T14:08:28;2.30;;;1.48;;
51987;SDS011;38003;52.012;4.346;2023-06-14T14:10:58;3.05;;;1.38;;
51987;SDS011;38003;52.012;4.346;2023-06-14T14:13:27;2.90;;;1.55;;
51987;SDS011;38003;52.012;4.346;2023-06-14T14:15:55;5.07;;;1.65;;
51987;SDS011;38003;52.012;4.346;2023-06-14T14:18:23;4.57;;;1.40;;
51987;SDS011;38003;52.012;4.346;2023-06-14T14:20:54;3.17;;;1.20;;
51987;SDS011;38003;52.012;4.346;2023-06-14T14:23:23;5.15;;;1.55;;
51987;SDS011;38003;52.012;4.346;2023-06-14T14:25:51;2.85;;;1.30;;
51987;SDS011;38003;52.012;4.346;2023-06-14T14:28:20;2.35;;;1.45;;
51987;SDS011;38003;52.012;4.346;2023-06-14T14:30:49;2.83;;;1.40;;
51987;SDS011;38003;52.012;4.346;2023-06-14T14:33:17;1.98;;;1.52;;
51987;SDS011;38003;52.012;4.346;2023-06-14T14:35:45;1.67;;;1.58;;
51987;SDS011;38003;52.012;4.346;2023-06-14T14:38:14;2.78;;;1.40;;
51987;SDS011;38003;52.012;4.346;2023-06-14T14:40:42;1.63;;;1.23;;
51987;SDS011;38003;52.012;4.346;2023-06-14T14:43:11;1.88;;;1.52;;
51987;SDS011;38003;52.012;4.346;2023-06-14T14:45:40;2.95;;;1.60;;
51987;SDS011;38003;52.012;4.346;2023-06-14T14:48:08;2.42;;;1.35;;
51987;SDS011;38003;52.012;4.346;2023-06-14T14:50:37;2.85;;;1.60;;
51987;SDS011;38003;52.012;4.346;2023-06-14T14:53:05;4.40;;;1.60;;
51987;SDS011;38003;52.012;4.346;2023-06-14T14:55:33;2.95;;;1.55;;
51987;SDS011;38003;52.012;4.346;2023-06-14T14:58:03;3.05;;;1.50;;
51987;SDS011;38003;52.012;4.346;2023-06-14T15:00:33;1.65;;;1.25;;
51987;SDS011;38003;52.012;4.346;2023-06-14T15:03:02;1.55;;;1.20;;
51987;SDS011;38003;52.012;4.346;2023-06-14T15:05:31;2.38;;;1.52;;